createdAt,value
2022-09-15T00:00:22.468Z,100.00
2022-09-15T00:02:51.051Z,100.00
2022-09-15T00:05:18.845Z,100.00
2022-09-15T00:07:46.971Z,100.00
2022-09-15T00:10:16.591Z,100.00
2022-09-15T00:12:44.908Z,100.00
2022-09-15T00:15:13.712Z,100.00
2022-09-15T00:17:41.689Z,100.00
2022-09-15T00:20:10.636Z,100.00
2022-09-15T00:22:38.404Z,100.00
2022-09-15T00:25:06.431Z,100.00
2022-09-15T00:27:35.617Z,100.00
2022-09-15T00:30:04.650Z,100.00
2022-09-15T00:32:32.881Z,100.00
2022-09-15T00:35:00.590Z,100.00
2022-09-15T00:37:28.201Z,100.00
2022-09-15T00:39:55.934Z,100.00
2022-09-15T00:42:24.043Z,100.00
2022-09-15T00:44:56.229Z,100.00
2022-09-15T00:47:26.810Z,100.00
2022-09-15T00:49:59.341Z,100.00
2022-09-15T00:52:34.570Z,100.00
2022-09-15T00:55:06.913Z,100.00
2022-09-15T00:57:45.487Z,100.00
2022-09-15T01:00:17.912Z,100.00
2022-09-15T01:02:47.102Z,100.00
2022-09-15T01:05:17.098Z,100.00
2022-09-15T01:07:52.072Z,100.00
2022-09-15T01:10:24.811Z,100.00
2022-09-15T01:12:54.829Z,100.00
2022-09-15T01:15:28.659Z,100.00
2022-09-15T01:18:12.988Z,100.00
2022-09-15T01:21:01.500Z,100.00
2022-09-15T01:24:01.707Z,100.00
2022-09-15T01:26:58.094Z,100.00
2022-09-15T01:29:59.298Z,100.00
2022-09-15T01:32:34.739Z,100.00
2022-09-15T01:35:10.389Z,100.00
2022-09-15T01:37:43.933Z,100.00
2022-09-15T01:40:15.209Z,100.00
2022-09-15T01:42:43.108Z,100.00
2022-09-15T01:45:17.974Z,100.00
2022-09-15T01:47:47.827Z,100.00
2022-09-15T01:50:20.186Z,100.00
2022-09-15T01:52:52.388Z,100.00
2022-09-15T01:55:26.954Z,100.00
2022-09-15T01:57:54.495Z,100.00
2022-09-15T02:00:23.436Z,100.00
2022-09-15T02:02:56.250Z,100.00
2022-09-15T02:05:28.437Z,100.00
2022-09-15T02:08:04.559Z,100.00
2022-09-15T02:10:38.880Z,100.00
2022-09-15T02:13:12.508Z,100.00
2022-09-15T02:15:45.368Z,100.00
2022-09-15T02:18:17.055Z,100.00
2022-09-15T02:20:49.999Z,100.00
2022-09-15T02:23:23.745Z,100.00
2022-09-15T02:25:55.972Z,100.00
2022-09-15T02:28:30.320Z,100.00
2022-09-15T02:31:01.088Z,100.00
2022-09-15T02:33:35.203Z,100.00
2022-09-15T02:36:04.977Z,100.00
2022-09-15T02:38:39.031Z,100.00
2022-09-15T02:41:06.825Z,100.00
2022-09-15T02:43:34.460Z,100.00
2022-09-15T02:46:07.029Z,100.00
2022-09-15T02:48:35.125Z,100.00
2022-09-15T02:51:02.715Z,100.00
2022-09-15T02:53:30.763Z,100.00
2022-09-15T02:55:58.955Z,100.00
2022-09-15T02:58:26.482Z,100.00
2022-09-15T03:00:54.259Z,100.00
2022-09-15T03:03:23.332Z,100.00
2022-09-15T03:05:51.018Z,100.00
2022-09-15T03:08:18.938Z,100.00
2022-09-15T03:10:46.509Z,100.00
2022-09-15T03:13:14.055Z,100.00
2022-09-15T03:15:42.667Z,100.00
2022-09-15T03:18:11.115Z,100.00
2022-09-15T03:20:40.160Z,100.00
2022-09-15T03:23:08.649Z,100.00
2022-09-15T03:25:36.785Z,100.00
2022-09-15T03:28:04.375Z,100.00
2022-09-15T03:30:32.236Z,100.00
2022-09-15T03:32:59.795Z,100.00
2022-09-15T03:35:27.341Z,100.00
2022-09-15T03:37:56.822Z,100.00
2022-09-15T03:40:27.044Z,100.00
2022-09-15T03:42:54.814Z,100.00
2022-09-15T03:45:22.509Z,100.00
2022-09-15T03:47:50.125Z,100.00
2022-09-15T03:50:18.025Z,100.00
2022-09-15T03:52:45.918Z,100.00
2022-09-15T03:55:15.284Z,100.00
2022-09-15T03:57:44.495Z,100.00
2022-09-15T04:00:13.534Z,100.00
2022-09-15T04:02:41.298Z,100.00
2022-09-15T04:05:09.947Z,100.00
2022-09-15T04:07:38.262Z,100.00
2022-09-15T04:10:06.635Z,100.00
2022-09-15T04:12:36.547Z,100.00
2022-09-15T04:15:04.910Z,100.00
2022-09-15T04:17:33.252Z,100.00
2022-09-15T04:20:01.011Z,100.00
2022-09-15T04:22:30.789Z,100.00
2022-09-15T04:24:58.408Z,100.00
2022-09-15T04:27:26.156Z,100.00
2022-09-15T04:29:55.601Z,100.00
2022-09-15T04:32:23.386Z,100.00
2022-09-15T04:34:51.038Z,100.00
2022-09-15T04:37:18.687Z,100.00
2022-09-15T04:39:46.400Z,100.00
2022-09-15T04:42:13.993Z,100.00
2022-09-15T04:44:42.153Z,100.00
2022-09-15T04:47:11.253Z,100.00
2022-09-15T04:49:38.792Z,100.00
2022-09-15T04:52:09.718Z,100.00
2022-09-15T04:54:37.993Z,99.48
2022-09-15T04:57:06.055Z,99.07
2022-09-15T04:59:35.113Z,98.91
2022-09-15T05:02:03.210Z,98.80
2022-09-15T05:04:32.799Z,98.26
2022-09-15T05:07:00.637Z,98.05
2022-09-15T05:09:28.414Z,96.98
2022-09-15T05:11:56.115Z,96.80
2022-09-15T05:14:23.938Z,97.04
2022-09-15T05:16:51.864Z,96.48
2022-09-15T05:19:19.466Z,96.10
2022-09-15T05:21:48.622Z,95.84
2022-09-15T05:24:16.236Z,95.63
2022-09-15T05:26:43.796Z,94.96
2022-09-15T05:29:11.577Z,95.14
2022-09-15T05:31:39.493Z,94.80
2022-09-15T05:34:07.799Z,95.43
2022-09-15T05:36:35.751Z,93.47
2022-09-15T05:39:04.731Z,93.47
2022-09-15T05:41:32.476Z,91.20
2022-09-15T05:44:00.198Z,89.25
2022-09-15T05:46:28.713Z,90.12
2022-09-15T05:48:58.585Z,89.10
2022-09-15T05:51:26.406Z,84.74
2022-09-15T05:53:54.010Z,85.13
2022-09-15T05:56:23.264Z,82.71
2022-09-15T05:58:51.173Z,82.07
2022-09-15T06:01:20.699Z,81.22
2022-09-15T06:03:48.589Z,79.68
2022-09-15T06:06:16.715Z,78.96
2022-09-15T06:08:48.115Z,82.27
2022-09-15T06:11:18.056Z,78.28
2022-09-15T06:13:47.798Z,79.51
2022-09-15T06:16:18.562Z,80.60
2022-09-15T06:18:47.417Z,79.12
2022-09-15T06:21:17.950Z,78.63
2022-09-15T06:23:50.045Z,78.77
2022-09-15T06:26:19.263Z,83.33
2022-09-15T06:28:50.730Z,81.44
2022-09-15T06:31:19.686Z,83.38
2022-09-15T06:33:50.962Z,80.90
2022-09-15T06:36:20.070Z,81.00
2022-09-15T06:38:48.369Z,81.42
2022-09-15T06:41:16.695Z,80.42
2022-09-15T06:43:44.871Z,81.26
2022-09-15T06:46:15.505Z,80.63
2022-09-15T06:48:47.563Z,83.04
2022-09-15T06:51:18.068Z,81.72
2022-09-15T06:53:46.628Z,81.58
2022-09-15T06:56:16.167Z,79.41
2022-09-15T06:58:47.249Z,77.89
2022-09-15T07:01:20.876Z,78.14
2022-09-15T07:03:48.936Z,79.21
2022-09-15T07:06:16.616Z,81.46
2022-09-15T07:08:44.635Z,80.05
2022-09-15T07:11:13.583Z,78.18
2022-09-15T07:13:41.629Z,79.55
2022-09-15T07:16:12.052Z,76.33
2022-09-15T07:18:43.444Z,77.29
2022-09-15T07:21:14.534Z,75.23
2022-09-15T07:23:42.912Z,73.88
2022-09-15T07:26:12.531Z,73.35
2022-09-15T07:28:42.696Z,76.38
2022-09-15T07:31:13.371Z,75.06
2022-09-15T07:33:42.770Z,73.23
2022-09-15T07:36:11.057Z,74.64
2022-09-15T07:38:40.289Z,73.28
2022-09-15T07:41:10.194Z,75.04
2022-09-15T07:43:38.085Z,68.69
2022-09-15T07:46:07.481Z,70.50
2022-09-15T07:48:36.853Z,72.85
2022-09-15T07:51:06.110Z,73.81
2022-09-15T07:53:33.791Z,68.58
2022-09-15T07:56:01.494Z,70.52
2022-09-15T07:58:29.455Z,68.77
2022-09-15T08:01:02.674Z,69.90
2022-09-15T08:03:30.466Z,67.24
2022-09-15T08:05:58.854Z,67.78
2022-09-15T08:08:28.803Z,70.05
2022-09-15T08:10:58.093Z,67.57
2022-09-15T08:13:26.720Z,68.31
2022-09-15T08:15:54.406Z,68.21
2022-09-15T08:18:22.092Z,67.79
2022-09-15T08:20:49.684Z,70.74
2022-09-15T08:23:17.433Z,73.06
2022-09-15T08:25:46.384Z,70.79
2022-09-15T08:28:14.156Z,68.83
2022-09-15T08:30:41.953Z,69.78
2022-09-15T08:33:09.722Z,66.42
2022-09-15T08:35:37.726Z,67.42
2022-09-15T08:38:05.383Z,66.96
2022-09-15T08:40:37.666Z,66.62
2022-09-15T08:43:18.967Z,68.08
2022-09-15T08:45:52.843Z,68.45
2022-09-15T08:48:27.728Z,65.86
2022-09-15T08:50:58.107Z,67.14
2022-09-15T08:53:29.739Z,66.39
2022-09-15T08:56:00.353Z,70.71
2022-09-15T08:58:32.284Z,65.83
2022-09-15T09:01:05.321Z,66.38
2022-09-15T09:03:49.340Z,65.21
2022-09-15T09:06:29.447Z,66.70
2022-09-15T09:09:18.526Z,68.65
2022-09-15T09:12:05.226Z,67.40
2022-09-15T09:14:47.079Z,68.09
2022-09-15T09:17:29.120Z,66.97
2022-09-15T09:20:20.611Z,65.72
2022-09-15T09:22:50.959Z,66.87
2022-09-15T09:25:27.704Z,66.77
2022-09-15T09:27:57.042Z,66.02
2022-09-15T09:30:31.170Z,66.11
2022-09-15T09:33:14.603Z,67.27
2022-09-15T09:35:44.715Z,69.29
2022-09-15T09:38:20.291Z,67.51
2022-09-15T09:40:49.846Z,66.98
2022-09-15T09:43:17.798Z,66.71
2022-09-15T09:45:47.094Z,67.67
2022-09-15T09:48:19.096Z,67.04
2022-09-15T09:50:47.355Z,66.19
2022-09-15T09:53:24.165Z,68.15
2022-09-15T09:55:52.385Z,67.37
2022-09-15T09:58:22.221Z,66.55
2022-09-15T10:00:51.919Z,68.50
2022-09-15T10:03:21.418Z,67.02
2022-09-15T10:06:03.625Z,67.79
2022-09-15T10:08:31.844Z,69.28
2022-09-15T10:11:04.235Z,66.83
2022-09-15T10:13:34.533Z,68.34
2022-09-15T10:16:06.838Z,68.35
2022-09-15T10:18:36.888Z,67.51
2022-09-15T10:21:08.457Z,69.23
2022-09-15T10:23:36.533Z,70.68
2022-09-15T10:26:22.603Z,70.30
2022-09-15T10:29:15.406Z,69.33
2022-09-15T10:31:45.935Z,69.85
2022-09-15T10:34:30.396Z,69.31
2022-09-15T10:37:08.330Z,70.01
2022-09-15T10:39:51.574Z,70.66
2022-09-15T10:42:49.162Z,71.02
2022-09-15T10:45:24.749Z,69.95
2022-09-15T10:48:20.100Z,69.67
2022-09-15T10:51:03.758Z,68.77
2022-09-15T10:53:58.058Z,69.04
2022-09-15T10:56:30.543Z,70.77
2022-09-15T10:59:20.632Z,69.54
2022-09-15T11:02:03.147Z,69.82
2022-09-15T11:04:44.787Z,72.72
2022-09-15T11:07:19.809Z,73.06
2022-09-15T11:09:54.277Z,71.74
2022-09-15T11:12:31.423Z,72.04
2022-09-15T11:15:17.026Z,75.45
2022-09-15T11:17:58.917Z,72.39
2022-09-15T11:21:01.910Z,71.53
2022-09-15T11:23:34.644Z,72.37
2022-09-15T11:26:09.089Z,73.07
2022-09-15T11:28:42.959Z,70.61
2022-09-15T11:31:17.115Z,71.93
2022-09-15T11:33:48.940Z,70.31
2022-09-15T11:36:23.094Z,70.89
2022-09-15T11:38:56.721Z,71.83
2022-09-15T11:41:28.623Z,69.68
2022-09-15T11:44:07.125Z,70.14
2022-09-15T11:46:50.938Z,69.10
2022-09-15T11:49:23.356Z,67.87
2022-09-15T11:51:59.008Z,67.01
2022-09-15T11:54:34.451Z,67.62
2022-09-15T11:57:02.424Z,66.97
2022-09-15T11:59:38.871Z,65.87
2022-09-15T12:02:17.078Z,67.45
2022-09-15T12:05:02.058Z,66.33
2022-09-15T12:07:36.194Z,67.74
2022-09-15T12:10:15.164Z,69.11
2022-09-15T12:12:44.629Z,66.22
2022-09-15T12:15:17.958Z,67.26
2022-09-15T12:17:52.132Z,67.61
2022-09-15T12:20:25.185Z,67.32
2022-09-15T12:23:02.561Z,67.01
2022-09-15T12:25:40.002Z,69.41
2022-09-15T12:28:37.055Z,69.11
2022-09-15T12:31:13.655Z,68.51
2022-09-15T12:33:45.786Z,66.84
2022-09-15T12:36:41.107Z,67.08
2022-09-15T12:39:29.886Z,68.85
2022-09-15T12:42:07.710Z,69.13
2022-09-15T12:44:37.161Z,66.00
2022-09-15T12:47:17.370Z,66.96
2022-09-15T12:49:48.360Z,66.78
2022-09-15T12:52:16.861Z,65.94
2022-09-15T12:54:53.561Z,67.76
2022-09-15T12:57:26.581Z,67.85
2022-09-15T13:00:33.802Z,67.50
2022-09-15T13:03:02.204Z,67.85
2022-09-15T13:06:06.709Z,67.74
2022-09-15T13:09:21.609Z,68.37
2022-09-15T13:11:53.949Z,67.34
2022-09-15T13:14:27.489Z,70.30
2022-09-15T13:17:01.151Z,67.61
2022-09-15T13:19:37.755Z,67.77
2022-09-15T13:22:16.919Z,66.88
2022-09-15T13:24:48.602Z,66.30
2022-09-15T13:27:21.646Z,68.11
2022-09-15T13:29:57.933Z,69.10
2022-09-15T13:32:35.987Z,69.39
2022-09-15T13:35:32.305Z,68.21
2022-09-15T13:38:38.198Z,70.07
2022-09-15T13:41:40.740Z,68.79
2022-09-15T13:44:37.971Z,69.37
2022-09-15T13:47:35.102Z,72.15
2022-09-15T13:50:14.450Z,69.83
2022-09-15T13:53:12.348Z,72.22
2022-09-15T13:55:43.362Z,70.85
2022-09-15T14:01:05.834Z,70.33
2022-09-15T14:03:42.031Z,70.89
2022-09-15T14:06:13.616Z,73.78
2022-09-15T14:08:44.086Z,72.22
2022-09-15T14:11:14.364Z,73.17
2022-09-15T14:13:46.318Z,75.64
2022-09-15T14:16:30.555Z,73.90
2022-09-15T14:19:00.753Z,74.88
2022-09-15T14:21:30.890Z,74.94
2022-09-15T14:24:02.795Z,75.06
2022-09-15T14:26:33.828Z,74.22
2022-09-15T14:29:03.659Z,73.69
2022-09-15T14:31:34.537Z,75.11
2022-09-15T14:34:06.458Z,72.40
2022-09-15T14:36:34.941Z,72.69
2022-09-15T14:39:18.515Z,75.89
2022-09-15T14:41:47.380Z,77.59
2022-09-15T14:47:17.828Z,78.95
2022-09-15T14:49:47.501Z,83.03
2022-09-15T14:52:24.503Z,81.24
2022-09-15T14:54:57.773Z,81.68
2022-09-15T14:57:31.111Z,82.75
2022-09-15T15:00:06.814Z,83.01
2022-09-15T15:02:48.723Z,82.74
2022-09-15T15:05:22.359Z,85.42
2022-09-15T15:07:51.949Z,84.02
2022-09-15T15:10:26.079Z,87.06
2022-09-15T15:12:59.146Z,84.82
2022-09-15T15:15:28.398Z,87.37
2022-09-15T15:17:57.501Z,85.98
2022-09-15T15:20:28.352Z,86.61
2022-09-15T15:23:14.975Z,87.18
2022-09-15T15:25:43.746Z,86.57
2022-09-15T15:28:30.614Z,86.78
2022-09-15T15:31:15.759Z,87.63
2022-09-15T15:33:48.526Z,87.71
2022-09-15T15:36:22.015Z,88.64
2022-09-15T15:38:52.935Z,91.87
2022-09-15T15:41:23.253Z,92.76
2022-09-15T15:44:02.509Z,91.40
2022-09-15T15:46:47.748Z,92.17
2022-09-15T15:49:15.826Z,93.73
2022-09-15T15:51:44.951Z,95.36
2022-09-15T15:54:13.531Z,94.42
2022-09-15T15:56:41.236Z,96.74
2022-09-15T15:59:11.783Z,97.41
2022-09-15T16:01:40.034Z,97.57
2022-09-15T16:04:07.795Z,98.48
2022-09-15T16:06:36.217Z,98.04
2022-09-15T16:09:05.747Z,100.00
2022-09-15T16:11:34.711Z,100.00
2022-09-15T16:14:02.374Z,100.00
2022-09-15T16:16:31.624Z,100.00
2022-09-15T16:18:59.520Z,100.00
2022-09-15T16:21:32.360Z,100.00
2022-09-15T16:24:00.558Z,100.00
2022-09-15T16:26:29.631Z,100.00
2022-09-15T16:28:58.050Z,100.00
2022-09-15T16:31:25.735Z,100.00
2022-09-15T16:33:53.405Z,100.00
2022-09-15T16:36:21.222Z,100.00
2022-09-15T16:38:49.707Z,100.00
2022-09-15T16:41:18.908Z,100.00
2022-09-15T16:43:48.253Z,100.00
2022-09-15T16:46:16.399Z,100.00
2022-09-15T16:48:44.396Z,100.00
2022-09-15T16:51:28.001Z,100.00
2022-09-15T16:53:57.483Z,100.00
2022-09-15T16:56:25.767Z,100.00
2022-09-15T16:58:59.831Z,100.00
2022-09-15T17:01:28.721Z,100.00
2022-09-15T17:03:57.074Z,100.00
2022-09-15T17:06:24.980Z,100.00
2022-09-15T17:08:54.851Z,100.00
2022-09-15T17:11:23.190Z,100.00
2022-09-15T17:13:51.336Z,100.00
2022-09-15T17:16:20.720Z,100.00
2022-09-15T17:18:49.586Z,100.00
2022-09-15T17:21:18.187Z,100.00
2022-09-15T17:23:48.446Z,100.00
2022-09-15T17:26:19.690Z,100.00
2022-09-15T17:28:48.363Z,100.00
2022-09-15T17:31:18.277Z,100.00
2022-09-15T17:33:49.249Z,100.00
2022-09-15T17:36:17.709Z,100.00
2022-09-15T17:38:45.488Z,100.00
2022-09-15T17:41:14.879Z,100.00
2022-09-15T17:43:42.893Z,100.00
2022-09-15T17:46:11.260Z,100.00
2022-09-15T17:48:39.715Z,100.00
2022-09-15T17:51:13.107Z,100.00
2022-09-15T17:53:41.601Z,100.00
2022-09-15T17:56:09.273Z,100.00
2022-09-15T17:58:37.100Z,100.00
2022-09-15T18:01:05.043Z,100.00
2022-09-15T18:03:34.182Z,100.00
2022-09-15T18:06:03.839Z,100.00
2022-09-15T18:08:33.701Z,100.00
2022-09-15T18:11:01.987Z,100.00
2022-09-15T20:22:54.050Z,100.00
2022-09-15T20:25:23.231Z,100.00
2022-09-15T20:27:51.527Z,100.00
2022-09-15T20:30:20.042Z,100.00
2022-09-15T20:32:47.769Z,100.00
2022-09-15T20:35:16.341Z,100.00
2022-09-15T20:37:44.807Z,100.00
2022-09-15T20:40:15.486Z,100.00
2022-09-15T20:42:43.797Z,100.00
2022-09-15T20:45:12.623Z,100.00
2022-09-15T20:47:42.242Z,100.00
2022-09-15T20:50:10.610Z,100.00
2022-09-15T20:52:38.989Z,100.00
2022-09-15T20:55:07.711Z,100.00
2022-09-15T20:57:37.574Z,100.00
2022-09-15T21:00:06.888Z,100.00
2022-09-15T21:02:36.648Z,100.00
2022-09-15T21:05:05.431Z,100.00
2022-09-15T21:07:33.882Z,100.00
2022-09-15T21:10:01.928Z,100.00
2022-09-15T21:12:29.914Z,100.00
2022-09-15T21:14:59.349Z,100.00
2022-09-15T21:17:27.221Z,100.00
2022-09-15T21:19:55.276Z,100.00
2022-09-15T21:22:23.352Z,100.00
2022-09-15T21:24:50.995Z,100.00
2022-09-15T21:27:18.639Z,100.00
2022-09-15T21:29:46.642Z,100.00
2022-09-15T21:32:15.728Z,100.00
2022-09-15T21:34:43.858Z,100.00
2022-09-15T21:37:11.680Z,100.00
2022-09-15T21:39:40.123Z,100.00
2022-09-15T21:42:07.943Z,100.00
2022-09-15T21:44:35.775Z,100.00
2022-09-15T21:47:03.708Z,100.00
2022-09-15T21:49:32.888Z,100.00
2022-09-15T21:52:00.909Z,100.00
2022-09-15T21:54:28.536Z,100.00
2022-09-15T21:56:56.150Z,100.00
2022-09-15T21:59:24.176Z,100.00
2022-09-15T22:01:51.910Z,100.00
2022-09-15T22:04:19.654Z,100.00
2022-09-15T22:06:49.001Z,100.00
2022-09-15T22:09:18.708Z,100.00
2022-09-15T22:11:47.061Z,100.00
2022-09-15T22:14:16.097Z,100.00
2022-09-15T22:16:44.167Z,100.00
2022-09-15T22:19:12.846Z,100.00
2022-09-15T22:21:41.358Z,100.00
2022-09-15T22:24:12.673Z,100.00
2022-09-15T22:26:42.084Z,100.00
2022-09-15T22:29:10.419Z,100.00
2022-09-15T22:31:38.525Z,100.00
2022-09-15T22:34:06.424Z,100.00
2022-09-15T22:36:34.725Z,100.00
2022-09-15T22:39:03.442Z,100.00
2022-09-15T22:41:34.096Z,100.00
2022-09-15T22:44:02.554Z,100.00
2022-09-15T22:46:30.662Z,100.00
2022-09-15T22:48:58.518Z,100.00
2022-09-15T22:51:26.243Z,100.00
2022-09-15T22:53:54.534Z,100.00
2022-09-15T22:56:22.670Z,100.00
2022-09-15T22:58:52.247Z,100.00
2022-09-15T23:01:22.248Z,100.00
2022-09-15T23:03:50.709Z,100.00
2022-09-15T23:06:18.483Z,100.00
2022-09-15T23:08:50.618Z,100.00
2022-09-15T23:11:18.921Z,100.00
2022-09-15T23:13:47.790Z,100.00
2022-09-15T23:16:17.602Z,100.00
2022-09-15T23:18:46.739Z,100.00
2022-09-15T23:21:15.023Z,100.00
2022-09-15T23:23:44.439Z,100.00
2022-09-15T23:26:13.597Z,100.00
2022-09-15T23:28:41.383Z,100.00
2022-09-15T23:31:11.771Z,100.00
2022-09-15T23:33:40.945Z,100.00
2022-09-15T23:36:11.747Z,100.00
2022-09-15T23:38:41.021Z,100.00
2022-09-15T23:41:09.627Z,100.00
2022-09-15T23:43:37.702Z,100.00
2022-09-15T23:46:06.381Z,100.00
2022-09-15T23:48:34.370Z,100.00
2022-09-15T23:51:07.416Z,100.00
2022-09-15T23:53:35.758Z,100.00
2022-09-15T23:56:04.055Z,100.00
2022-09-15T23:58:31.946Z,100.00
